Dades meteomassalio
Diari Summary for Febrer 24, 2018 Units:  Both    English   Metric
« Previous Day
Next Day »
Diari Semanal Mensual Anual Personalitzat
  Maxima: Minima: Mijana:
Temperatura: TemperatureC °F /  -17.8 °C -6.1 °F /  -21.2 °C 1.2 °F /  -17.1 °C
Rosada: DewpointC °F /  -17.8 °C -7.6 °F /  -22 °C -3.6 °F /  -19.8 °C
Humitat: Humidity % 44 % 73 %
Velocitat del vent: WindSpeedKMH mph /  0 km/h - 1.4 mph /  2.3 km/h
Racha vent: WindSpeedGustKMH mph /  0 km/h - -
Vent:- - ESE
Pressio: PressurehPa in /  0 hPa 1010.7 in /  34222.3 hPa -
Pluja: 0.0 in /  0 mm    
Historical Graphs
 
 
Tabular Data for Febrer 24, 2018
Time Temperature Dew Point Pressure Wind Wind Speed Wind Gust Humidity Rainfall Rate (Hourly) solar Conditions
TemperatureC °F /  -17.8 °C DewpointC °F /  -17.8 °C PressurehPa in /  0 hPa Calm     Humidity % HourlyPrecipMM in /  0 mm SolarRadiationWatts/m^2 W/m2 Conditions
00:00 -2.8 °F /  -19.3 °C -5.3 °F /  -20.7 °C 1011.1 in /  34235.8 hPa Calm     83 % 0.0 in /  0 mm 0.0 W/m2 CLR
00:05 -3.3 °F /  -19.6 °C -5.8 °F /  -21 °C 1011.1 in /  34235.8 hPa Calm     83 % 0.0 in /  0 mm 0.0 W/m2 CLR
00:10 -3.3 °F /  -19.6 °C -5.9 °F /  -21.1 °C 1011.1 in /  34235.8 hPa Calm     82 % 0.0 in /  0 mm 0.0 W/m2 CLR
00:15 -3.3 °F /  -19.6 °C -5.9 °F /  -21.1 °C 1011.1 in /  34235.8 hPa Calm     82 % 0.0 in /  0 mm 0.0 W/m2 CLR
00:20 -2.8 °F /  -19.3 °C -5.3 °F /  -20.7 °C 1011.1 in /  34235.8 hPa Calm     83 % 0.0 in /  0 mm 0.0 W/m2 CLR
00:25 -2.8 °F /  -19.3 °C -5.3 °F /  -20.7 °C 1011.1 in /  34235.8 hPa Calm     83 % 0.0 in /  0 mm 0.0 W/m2 CLR
00:30 -2.8 °F /  -19.3 °C -5.1 °F /  -20.6 °C 1011.1 in /  34235.8 hPa Calm     84 % 0.0 in /  0 mm 0.0 W/m2 CLR
00:35 -2.8 °F /  -19.3 °C -5.1 °F /  -20.6 °C 1011.1 in /  34235.8 hPa Calm     84 % 0.0 in /  0 mm 0.0 W/m2 CLR
00:40 -2.8 °F /  -19.3 °C -5.1 °F /  -20.6 °C 1011.1 in /  34235.8 hPa Calm     84 % 0.0 in /  0 mm 0.0 W/m2 CLR
00:45 -2.8 °F /  -19.3 °C -5.1 °F /  -20.6 °C 1010.7 in /  34222.3 hPa Calm     84 % 0.0 in /  0 mm 0.0 W/m2 CLR
00:50 -2.8 °F /  -19.3 °C -4.9 °F /  -20.5 °C 1011.1 in /  34235.8 hPa Calm     85 % 0.0 in /  0 mm 0.0 W/m2 CLR
00:55 -2.8 °F /  -19.3 °C -4.9 °F /  -20.5 °C 1011.1 in /  34235.8 hPa Calm     85 % 0.0 in /  0 mm 0.0 W/m2 CLR
01:00 -2.8 °F /  -19.3 °C -4.9 °F /  -20.5 °C 1011.1 in /  34235.8 hPa Calm     85 % 0.0 in /  0 mm 0.0 W/m2 CLR
01:05 -2.8 °F /  -19.3 °C -4.9 °F /  -20.5 °C 1011.1 in /  34235.8 hPa Calm     85 % 0.0 in /  0 mm 0.0 W/m2 CLR
01:10 -2.8 °F /  -19.3 °C -5.1 °F /  -20.6 °C 1011.1 in /  34235.8 hPa Calm     84 % 0.0 in /  0 mm 0.0 W/m2 CLR
01:15 -3.3 °F /  -19.6 °C -5.5 °F /  -20.8 °C 1011.1 in /  34235.8 hPa Calm     85 % 0.0 in /  0 mm 0.0 W/m2 CLR
01:20 -3.3 °F /  -19.6 °C -5.5 °F /  -20.8 °C 1011.1 in /  34235.8 hPa Calm     85 % 0.0 in /  0 mm 0.0 W/m2 CLR
01:25 -3.3 °F /  -19.6 °C -5.5 °F /  -20.8 °C 1011.1 in /  34235.8 hPa Calm     85 % 0.0 in /  0 mm 0.0 W/m2 CLR
01:30 -3.3 °F /  -19.6 °C -5.5 °F /  -20.8 °C 1011.1 in /  34235.8 hPa Calm     85 % 0.0 in /  0 mm 0.0 W/m2 CLR
01:35 -3.3 °F /  -19.6 °C -5.3 °F /  -20.7 °C 1011.1 in /  34235.8 hPa Calm     86 % 0.0 in /  0 mm 0.0 W/m2 CLR
01:40 -3.3 °F /  -19.6 °C -5.3 °F /  -20.7 °C 1011.1 in /  34235.8 hPa Calm     86 % 0.0 in /  0 mm 0.0 W/m2 CLR
01:45 -3.9 °F /  -19.9 °C -5.9 °F /  -21.1 °C 1011.1 in /  34235.8 hPa Calm     86 % 0.0 in /  0 mm 0.0 W/m2 CLR
01:50 -3.9 °F /  -19.9 °C -5.9 °F /  -21.1 °C 1011.4 in /  34246 hPa Calm     86 % 0.0 in /  0 mm 0.0 W/m2 CLR
01:55 -3.9 °F /  -19.9 °C -5.9 °F /  -21.1 °C 1011.4 in /  34246 hPa Calm     86 % 0.0 in /  0 mm 0.0 W/m2 CLR
02:00 -3.9 °F /  -19.9 °C -5.9 °F /  -21.1 °C 1011.4 in /  34246 hPa Calm     86 % 0.0 in /  0 mm 0.0 W/m2 CLR
02:05 -3.9 °F /  -19.9 °C -5.9 °F /  -21.1 °C 1011.4 in /  34246 hPa Calm     86 % 0.0 in /  0 mm 0.0 W/m2 CLR
02:10 -3.9 °F /  -19.9 °C -5.7 °F /  -20.9 °C 1011.1 in /  34235.8 hPa Calm     87 % 0.0 in /  0 mm 0.0 W/m2 CLR
02:15 -3.9 °F /  -19.9 °C -5.7 °F /  -20.9 °C 1011.1 in /  34235.8 hPa Calm     87 % 0.0 in /  0 mm 0.0 W/m2 CLR
02:20 -3.9 °F /  -19.9 °C -5.7 °F /  -20.9 °C 1011.1 in /  34235.8 hPa Calm     87 % 0.0 in /  0 mm 0.0 W/m2 CLR
02:25 -3.9 °F /  -19.9 °C -5.7 °F /  -20.9 °C 1011.1 in /  34235.8 hPa Calm     87 % 0.0 in /  0 mm 0.0 W/m2 CLR
02:30 -4.4 °F /  -20.2 °C -6.3 °F /  -21.3 °C 1011.1 in /  34235.8 hPa Calm     87 % 0.0 in /  0 mm 0.0 W/m2 CLR
02:35 -4.4 °F /  -20.2 °C -6.3 °F /  -21.3 °C 1011.4 in /  34246 hPa Calm     87 % 0.0 in /  0 mm 0.0 W/m2 CLR
02:40 -4.4 °F /  -20.2 °C -6.1 °F /  -21.2 °C 1011.1 in /  34235.8 hPa Calm     88 % 0.0 in /  0 mm 0.0 W/m2 CLR
02:45 -4.4 °F /  -20.2 °C -6.3 °F /  -21.3 °C 1011.4 in /  34246 hPa Calm     87 % 0.0 in /  0 mm 0.0 W/m2 CLR
02:50 -4.4 °F /  -20.2 °C -6.3 °F /  -21.3 °C 1011.4 in /  34246 hPa Calm     87 % 0.0 in /  0 mm 0.0 W/m2 CLR
02:55 -4.4 °F /  -20.2 °C -6.3 °F /  -21.3 °C 1011.4 in /  34246 hPa Calm     87 % 0.0 in /  0 mm 0.0 W/m2 CLR
03:00 -4.4 °F /  -20.2 °C -6.3 °F /  -21.3 °C 1011.4 in /  34246 hPa Calm     87 % 0.0 in /  0 mm 0.0 W/m2 CLR
03:05 -4.4 °F /  -20.2 °C -6.3 °F /  -21.3 °C 1011.4 in /  34246 hPa Calm     87 % 0.0 in /  0 mm 0.0 W/m2 CLR
03:10 -4.4 °F /  -20.2 °C -6.3 °F /  -21.3 °C 1011.4 in /  34246 hPa Calm     87 % 0.0 in /  0 mm 0.0 W/m2 CLR
03:15 -4.4 °F /  -20.2 °C -6.1 °F /  -21.2 °C 1011.4 in /  34246 hPa Calm     88 % 0.0 in /  0 mm 0.0 W/m2 CLR
03:20 -4.4 °F /  -20.2 °C -6.1 °F /  -21.2 °C 1011.4 in /  34246 hPa Calm     88 % 0.0 in /  0 mm 0.0 W/m2 CLR
03:25 -4.4 °F /  -20.2 °C -6.1 °F /  -21.2 °C 1011.4 in /  34246 hPa Calm     88 % 0.0 in /  0 mm 0.0 W/m2 CLR
03:30 -4.4 °F /  -20.2 °C -6.1 °F /  -21.2 °C 1011.4 in /  34246 hPa Calm     88 % 0.0 in /  0 mm 0.0 W/m2 CLR
03:35 -4.4 °F /  -20.2 °C -6.1 °F /  -21.2 °C 1011.4 in /  34246 hPa Calm     88 % 0.0 in /  0 mm 0.0 W/m2 CLR
03:40 -4.4 °F /  -20.2 °C -6.1 °F /  -21.2 °C 1011.4 in /  34246 hPa Calm     88 % 0.0 in /  0 mm 0.0 W/m2 CLR
03:45 -4.4 °F /  -20.2 °C -6.1 °F /  -21.2 °C 1011.4 in /  34246 hPa Calm     88 % 0.0 in /  0 mm 0.0 W/m2 CLR
03:50 -4.4 °F /  -20.2 °C -6.1 °F /  -21.2 °C 1011.4 in /  34246 hPa Calm     88 % 0.0 in /  0 mm 0.0 W/m2 CLR
03:55 -4.4 °F /  -20.2 °C -6.1 °F /  -21.2 °C 1011.4 in /  34246 hPa Calm     88 % 0.0 in /  0 mm 0.0 W/m2 CLR
04:00 -4.4 °F /  -20.2 °C -6.1 °F /  -21.2 °C 1011.4 in /  34246 hPa Calm     88 % 0.0 in /  0 mm 0.0 W/m2 CLR
04:06 -4.4 °F /  -20.2 °C -6.1 °F /  -21.2 °C 1011.4 in /  34246 hPa Calm     88 % 0.0 in /  0 mm 0.0 W/m2 CLR
04:11 -4.4 °F /  -20.2 °C -6.1 °F /  -21.2 °C 1011.4 in /  34246 hPa Calm     88 % 0.0 in /  0 mm 0.0 W/m2 CLR
04:15 -4.4 °F /  -20.2 °C -6.0 °F /  -21.1 °C 1011.4 in /  34246 hPa Calm     89 % 0.0 in /  0 mm 0.0 W/m2 CLR
04:20 -3.9 °F /  -19.9 °C -5.6 °F /  -20.9 °C 1011.4 in /  34246 hPa Calm     88 % 0.0 in /  0 mm 0.0 W/m2 CLR
04:25 -3.9 °F /  -19.9 °C -5.4 °F /  -20.8 °C 1011.4 in /  34246 hPa Calm     89 % 0.0 in /  0 mm 0.0 W/m2 CLR
04:30 -4.4 °F /  -20.2 °C -6.0 °F /  -21.1 °C 1011.1 in /  34235.8 hPa Calm     89 % 0.0 in /  0 mm 0.0 W/m2 CLR
04:36 -4.4 °F /  -20.2 °C -6.0 °F /  -21.1 °C 1011.1 in /  34235.8 hPa Calm     89 % 0.0 in /  0 mm 0.0 W/m2 CLR
04:41 -4.4 °F /  -20.2 °C -6.0 °F /  -21.1 °C 1011.1 in /  34235.8 hPa Calm     89 % 0.0 in /  0 mm 0.0 W/m2 CLR
04:46 -4.4 °F /  -20.2 °C -6.0 °F /  -21.1 °C 1011.1 in /  34235.8 hPa Calm     89 % 0.0 in /  0 mm 0.0 W/m2 CLR
04:51 -4.4 °F /  -20.2 °C -6.0 °F /  -21.1 °C 1011.1 in /  34235.8 hPa Calm     89 % 0.0 in /  0 mm 0.0 W/m2 CLR
04:56 -4.4 °F /  -20.2 °C -6.0 °F /  -21.1 °C 1011.1 in /  34235.8 hPa Calm     89 % 0.0 in /  0 mm 0.0 W/m2 CLR
05:01 -5.0 °F /  -20.6 °C -6.6 °F /  -21.4 °C 1011.1 in /  34235.8 hPa Calm     89 % 0.0 in /  0 mm 0.0 W/m2 CLR
05:06 -5.0 °F /  -20.6 °C -6.4 °F /  -21.3 °C 1011.1 in /  34235.8 hPa Calm     90 % 0.0 in /  0 mm 0.0 W/m2 CLR
05:11 -5.0 °F /  -20.6 °C -6.6 °F /  -21.4 °C 1011.4 in /  34246 hPa Calm     89 % 0.0 in /  0 mm 0.0 W/m2 CLR
05:16 -5.0 °F /  -20.6 °C -6.6 °F /  -21.4 °C 1011.4 in /  34246 hPa Calm     89 % 0.0 in /  0 mm 0.0 W/m2 CLR
05:21 -5.0 °F /  -20.6 °C -6.6 °F /  -21.4 °C 1011.1 in /  34235.8 hPa Calm     89 % 0.0 in /  0 mm 0.0 W/m2 CLR
05:26 -5.0 °F /  -20.6 °C -6.6 °F /  -21.4 °C 1011.1 in /  34235.8 hPa Calm     89 % 0.0 in /  0 mm 0.0 W/m2 CLR
05:31 -5.6 °F /  -20.9 °C -7.1 °F /  -21.7 °C 1011.1 in /  34235.8 hPa Calm     89 % 0.0 in /  0 mm 0.0 W/m2 CLR
05:36 -5.6 °F /  -20.9 °C -7.1 °F /  -21.7 °C 1011.1 in /  34235.8 hPa Calm     89 % 0.0 in /  0 mm 0.0 W/m2 CLR
05:41 -5.6 °F /  -20.9 °C -7.1 °F /  -21.7 °C 1011.1 in /  34235.8 hPa Calm     89 % 0.0 in /  0 mm 0.0 W/m2 CLR
05:46 -5.6 °F /  -20.9 °C -7.1 °F /  -21.7 °C 1011.1 in /  34235.8 hPa Calm     89 % 0.0 in /  0 mm 0.0 W/m2 CLR
05:51 -5.6 °F /  -20.9 °C -6.9 °F /  -21.6 °C 1011.1 in /  34235.8 hPa Calm     90 % 0.0 in /  0 mm 0.0 W/m2 CLR
05:56 -5.6 °F /  -20.9 °C -6.9 °F /  -21.6 °C 1011.1 in /  34235.8 hPa Calm     90 % 0.0 in /  0 mm 0.0 W/m2 CLR
06:01 -5.6 °F /  -20.9 °C -7.1 °F /  -21.7 °C 1011.4 in /  34246 hPa Calm     89 % 0.0 in /  0 mm 0.0 W/m2 CLR
06:06 -5.6 °F /  -20.9 °C -7.1 °F /  -21.7 °C 1011.1 in /  34235.8 hPa Calm     89 % 0.0 in /  0 mm 0.0 W/m2 CLR
06:11 -5.6 °F /  -20.9 °C -6.9 °F /  -21.6 °C 1011.1 in /  34235.8 hPa Calm     90 % 0.0 in /  0 mm 0.0 W/m2 CLR
06:16 -5.6 °F /  -20.9 °C -6.9 °F /  -21.6 °C 1011.1 in /  34235.8 hPa Calm     90 % 0.0 in /  0 mm 0.0 W/m2 CLR
06:21 -5.6 °F /  -20.9 °C -6.9 °F /  -21.6 °C 1011.1 in /  34235.8 hPa Calm     90 % 0.0 in /  0 mm 0.0 W/m2 CLR
06:26 -5.6 °F /  -20.9 °C -6.9 °F /  -21.6 °C 1011.4 in /  34246 hPa Calm     90 % 0.0 in /  0 mm 0.0 W/m2 CLR
06:31 -5.6 °F /  -20.9 °C -7.1 °F /  -21.7 °C 1011.4 in /  34246 hPa Calm     89 % 0.0 in /  0 mm 0.0 W/m2 CLR
06:36 -6.1 °F /  -21.2 °C -7.5 °F /  -21.9 °C 1011.4 in /  34246 hPa Calm     90 % 0.0 in /  0 mm 0.0 W/m2 CLR
06:41 -6.1 °F /  -21.2 °C -7.6 °F /  -22 °C 1011.4 in /  34246 hPa Calm     89 % 0.0 in /  0 mm 0.0 W/m2 CLR
06:46 -5.6 °F /  -20.9 °C -6.9 °F /  -21.6 °C 1011.4 in /  34246 hPa Calm     90 % 0.0 in /  0 mm 0.0 W/m2 CLR
06:51 -5.6 °F /  -20.9 °C -7.1 °F /  -21.7 °C 1011.4 in /  34246 hPa Calm     89 % 0.0 in /  0 mm 0.0 W/m2 CLR
06:56 -5.6 °F /  -20.9 °C -6.9 °F /  -21.6 °C 1011.4 in /  34246 hPa Calm     90 % 0.0 in /  0 mm 0.0 W/m2 CLR
07:01 -5.6 °F /  -20.9 °C -6.9 °F /  -21.6 °C 1011.4 in /  34246 hPa Calm     90 % 0.0 in /  0 mm 0.0 W/m2 CLR
07:06 -6.1 °F /  -21.2 °C -7.5 °F /  -21.9 °C 1011.4 in /  34246 hPa Calm     90 % 0.0 in /  0 mm 0.0 W/m2 CLR
07:11 -6.1 °F /  -21.2 °C -7.5 °F /  -21.9 °C 1011.4 in /  34246 hPa Calm     90 % 0.0 in /  0 mm 0.0 W/m2 CLR
07:16 -6.1 °F /  -21.2 °C -7.5 °F /  -21.9 °C 1011.4 in /  34246 hPa Calm     90 % 0.0 in /  0 mm 0.0 W/m2 CLR
07:21 -6.1 °F /  -21.2 °C -7.5 °F /  -21.9 °C 1011.4 in /  34246 hPa Calm     90 % 0.0 in /  0 mm 0.0 W/m2 CLR
07:26 -6.1 °F /  -21.2 °C -7.5 °F /  -21.9 °C 1011.7 in /  34256.2 hPa Calm     90 % 0.0 in /  0 mm 0.0 W/m2 CLR
07:31 -5.6 °F /  -20.9 °C -6.9 °F /  -21.6 °C 1011.7 in /  34256.2 hPa Calm     90 % 0.0 in /  0 mm 0.0 W/m2 OVC
07:36 -5.0 °F /  -20.6 °C -6.4 °F /  -21.3 °C 1011.7 in /  34256.2 hPa Calm     90 % 0.0 in /  0 mm 0.0 W/m2 OVC
07:41 -5.0 °F /  -20.6 °C -6.4 °F /  -21.3 °C 1011.7 in /  34256.2 hPa Calm     90 % 0.0 in /  0 mm 0.0 W/m2 OVC
07:46 -5.0 °F /  -20.6 °C -6.4 °F /  -21.3 °C 1011.7 in /  34256.2 hPa Calm     90 % 0.0 in /  0 mm 5.0 W/m2 OVC
07:51 -5.6 °F /  -20.9 °C -6.9 °F /  -21.6 °C 1011.7 in /  34256.2 hPa Calm     90 % 0.0 in /  0 mm 11.0 W/m2 BKN
07:56 -5.6 °F /  -20.9 °C -6.9 °F /  -21.6 °C 1012.1 in /  34269.7 hPa Calm     90 % 0.0 in /  0 mm 14.0 W/m2 BKN
08:01 -5.0 °F /  -20.6 °C -6.4 °F /  -21.3 °C 1012.1 in /  34269.7 hPa Calm     90 % 0.0 in /  0 mm 19.0 W/m2 BKN
08:06 -5.0 °F /  -20.6 °C -6.4 °F /  -21.3 °C 1012.1 in /  34269.7 hPa Calm     90 % 0.0 in /  0 mm 23.0 W/m2 BKN
08:11 -5.0 °F /  -20.6 °C -6.4 °F /  -21.3 °C 1012.1 in /  34269.7 hPa Calm     90 % 0.0 in /  0 mm 28.0 W/m2 BKN
08:16 -5.0 °F /  -20.6 °C -6.4 °F /  -21.3 °C 1012.1 in /  34269.7 hPa Calm     90 % 0.0 in /  0 mm 33.0 W/m2 BKN
08:21 -5.0 °F /  -20.6 °C -6.4 °F /  -21.3 °C 1011.7 in /  34256.2 hPa Calm     90 % 0.0 in /  0 mm 44.0 W/m2 BKN
08:26 -5.0 °F /  -20.6 °C -6.2 °F /  -21.2 °C 1011.7 in /  34256.2 hPa Calm     91 % 0.0 in /  0 mm 53.0 W/m2 SCT
08:31 -4.4 °F /  -20.2 °C -5.7 °F /  -20.9 °C 1012.1 in /  34269.7 hPa Calm     91 % 0.0 in /  0 mm 69.0 W/m2 FEW
08:36 -4.4 °F /  -20.2 °C -5.8 °F /  -21 °C 1012.1 in /  34269.7 hPa Calm     90 % 0.0 in /  0 mm 83.0 W/m2 FEW
08:41 -4.4 °F /  -20.2 °C -5.8 °F /  -21 °C 1012.1 in /  34269.7 hPa Calm     90 % 0.0 in /  0 mm 98.0 W/m2 CLR
08:46 -4.4 °F /  -20.2 °C -5.8 °F /  -21 °C 1012.1 in /  34269.7 hPa Calm     90 % 0.0 in /  0 mm 116.0 W/m2 CLR
08:51 -3.9 °F /  -19.9 °C -5.4 °F /  -20.8 °C 1012.1 in /  34269.7 hPa Calm     89 % 0.0 in /  0 mm 132.0 W/m2 CLR
08:56 -3.9 °F /  -19.9 °C -5.4 °F /  -20.8 °C 1012.1 in /  34269.7 hPa Calm     89 % 0.0 in /  0 mm 148.0 W/m2 CLR
09:01 -3.3 °F /  -19.6 °C -4.7 °F /  -20.4 °C 1012.1 in /  34269.7 hPa Calm     90 % 0.0 in /  0 mm 146.0 W/m2 CLR
09:06 -3.3 °F /  -19.6 °C -4.7 °F /  -20.4 °C 1012.1 in /  34269.7 hPa Calm     90 % 0.0 in /  0 mm 179.0 W/m2 CLR
09:11 -2.8 °F /  -19.3 °C -4.3 °F /  -20.2 °C 1012.1 in /  34269.7 hPa Calm     89 % 0.0 in /  0 mm 186.0 W/m2 CLR
09:16 -2.8 °F /  -19.3 °C -4.3 °F /  -20.2 °C 1012.1 in /  34269.7 hPa Calm     89 % 0.0 in /  0 mm 199.0 W/m2 CLR
09:21 -2.8 °F /  -19.3 °C -4.5 °F /  -20.3 °C 1012.1 in /  34269.7 hPa Calm     88 % 0.0 in /  0 mm 218.0 W/m2 CLR
09:26 -2.2 °F /  -19 °C -4.1 °F /  -20.1 °C 1012.1 in /  34269.7 hPa Calm     87 % 0.0 in /  0 mm 232.0 W/m2 CLR
09:31 -2.2 °F /  -19 °C -4.2 °F /  -20.1 °C 1012.1 in /  34269.7 hPa Calm     86 % 0.0 in /  0 mm 246.0 W/m2 CLR
09:36 -1.7 °F /  -18.7 °C -4.0 °F /  -20 °C 1012.1 in /  34269.7 hPa Calm     84 % 0.0 in /  0 mm 251.0 W/m2 CLR
09:41 -1.7 °F /  -18.7 °C -4.3 °F /  -20.2 °C 1012.4 in /  34279.9 hPa Calm     82 % 0.0 in /  0 mm 272.0 W/m2 CLR
09:46 -1.1 °F /  -18.4 °C -3.9 °F /  -19.9 °C 1012.1 in /  34269.7 hPa Calm     81 % 0.0 in /  0 mm 288.0 W/m2 CLR
09:51 -0.6 °F /  -18.1 °C -3.6 °F /  -19.8 °C 1012.4 in /  34279.9 hPa Calm     80 % 0.0 in /  0 mm 304.0 W/m2 CLR
09:56 0.0 °F /  -17.8 °C -3.1 °F /  -19.5 °C 1012.4 in /  34279.9 hPa Calm     80 % 0.0 in /  0 mm 320.0 W/m2 CLR
10:01 0.0 °F /  -17.8 °C -3.2 °F /  -19.6 °C 1012.1 in /  34269.7 hPa Calm     79 % 0.0 in /  0 mm 332.0 W/m2 CLR
10:03 0.6 °F /  -17.4 °C -2.7 °F /  -19.3 °C 1012.4 in /  34279.9 hPa Calm     79 % 0.0 in /  0 mm 345.0 W/m2 CLR
10:08 1.1 °F /  -17.2 °C -2.3 °F /  -19.1 °C 1012.4 in /  34279.9 hPa Calm     78 % 0.0 in /  0 mm 362.0 W/m2 CLR
10:13 1.1 °F /  -17.2 °C -2.5 °F /  -19.2 °C 1012.4 in /  34279.9 hPa Calm     77 % 0.0 in /  0 mm 380.0 W/m2 CLR
10:18 1.7 °F /  -16.8 °C -2.5 °F /  -19.2 °C 1012.4 in /  34279.9 hPa Calm     74 % 0.0 in /  0 mm 394.0 W/m2 CLR
10:23 1.7 °F /  -16.8 °C -2.8 °F /  -19.3 °C 1012.4 in /  34279.9 hPa Calm     72 % 0.0 in /  0 mm 404.0 W/m2 CLR
10:28 2.2 °F /  -16.6 °C -2.3 °F /  -19.1 °C 1012.4 in /  34279.9 hPa Calm     72 % 0.0 in /  0 mm 418.0 W/m2 CLR
10:33 2.8 °F /  -16.2 °C -1.8 °F /  -18.8 °C 1012.4 in /  34279.9 hPa Calm     72 % 0.0 in /  0 mm 432.0 W/m2 CLR
10:38 3.3 °F /  -15.9 °C -1.4 °F /  -18.6 °C 1012.4 in /  34279.9 hPa Calm     71 % 0.0 in /  0 mm 445.0 W/m2 CLR
10:43 3.3 °F /  -15.9 °C -1.8 °F /  -18.8 °C 1012.4 in /  34279.9 hPa Calm     69 % 0.0 in /  0 mm 455.0 W/m2 CLR
10:48 3.9 °F /  -15.6 °C -1.1 °F /  -18.4 °C 1012.4 in /  34279.9 hPa Calm     70 % 0.0 in /  0 mm 468.0 W/m2 CLR
10:53 3.9 °F /  -15.6 °C -1.3 °F /  -18.5 °C 1012.4 in /  34279.9 hPa Calm     69 % 0.0 in /  0 mm 482.0 W/m2 CLR
10:58 4.4 °F /  -15.3 °C -1.2 °F /  -18.4 °C 1012.4 in /  34279.9 hPa Calm     67 % 0.0 in /  0 mm 492.0 W/m2 CLR
11:03 4.4 °F /  -15.3 °C -0.9 °F /  -18.3 °C 1012.4 in /  34279.9 hPa Calm     68 % 0.0 in /  0 mm 499.0 W/m2 CLR
11:08 5.0 °F /  -15 °C -0.4 °F /  -18 °C 1012.4 in /  34279.9 hPa Calm     68 % 0.0 in /  0 mm 512.0 W/m2 CLR
11:13 5.0 °F /  -15 °C -1.1 °F /  -18.4 °C 1012.4 in /  34279.9 hPa Calm     65 % 0.0 in /  0 mm 522.0 W/m2 CLR
11:19 5.0 °F /  -15 °C -1.3 °F /  -18.5 °C 1012.4 in /  34279.9 hPa Calm     64 % 0.0 in /  0 mm 533.0 W/m2 CLR
11:24 5.6 °F /  -14.7 °C -0.7 °F /  -18.2 °C 1012.1 in /  34269.7 hPa NNW 16.7 mph /  26.9 km/h 16.7 mph /  26.9 km/h 64 % 0.0 in /  0 mm 538.0 W/m2 CLR
11:29 5.6 °F /  -14.7 °C -0.9 °F /  -18.3 °C 1012.4 in /  34279.9 hPa Calm     63 % 0.0 in /  0 mm 543.0 W/m2 CLR
11:34 5.6 °F /  -14.7 °C -0.7 °F /  -18.2 °C 1012.4 in /  34279.9 hPa Calm     64 % 0.0 in /  0 mm 561.0 W/m2 CLR
11:39 6.1 °F /  -14.4 °C -0.4 °F /  -18 °C 1012.4 in /  34279.9 hPa NNE 9.3 mph /  15 km/h   63 % 0.0 in /  0 mm 570.0 W/m2 CLR
11:44 6.7 °F /  -14.1 °C 0.1 °F /  -17.7 °C 1012.1 in /  34269.7 hPa Calm     63 % 0.0 in /  0 mm 575.0 W/m2 CLR
11:49 6.7 °F /  -14.1 °C 0.3 °F /  -17.6 °C 1012.1 in /  34269.7 hPa NNW 9.7 mph /  15.6 km/h 9.7 mph /  15.6 km/h 64 % 0.0 in /  0 mm 587.0 W/m2 CLR
11:54 7.2 °F /  -13.8 °C 0.4 °F /  -17.6 °C 1012.1 in /  34269.7 hPa Calm     62 % 0.0 in /  0 mm 594.0 W/m2 CLR
11:59 7.2 °F /  -13.8 °C 0.4 °F /  -17.6 °C 1012.1 in /  34269.7 hPa Calm     62 % 0.0 in /  0 mm 601.0 W/m2 CLR
12:04 6.7 °F /  -14.1 °C -0.1 °F /  -17.8 °C 1012.1 in /  34269.7 hPa Calm     62 % 0.0 in /  0 mm 608.0 W/m2 CLR
12:09 6.7 °F /  -14.1 °C 0.1 °F /  -17.7 °C 1012.1 in /  34269.7 hPa NNW 9.7 mph /  15.6 km/h 9.7 mph /  15.6 km/h 63 % 0.0 in /  0 mm 613.0 W/m2 CLR
12:14 7.2 °F /  -13.8 °C -0.1 °F /  -17.8 °C 1012.1 in /  34269.7 hPa Calm     60 % 0.0 in /  0 mm 621.0 W/m2 CLR
12:19 7.8 °F /  -13.4 °C 0.7 °F /  -17.4 °C 1012.1 in /  34269.7 hPa NE 1.9 mph /  3.1 km/h 1.9 mph /  3.1 km/h 61 % 0.0 in /  0 mm 624.0 W/m2 CLR
12:24 7.8 °F /  -13.4 °C 0.9 °F /  -17.3 °C 1012.1 in /  34269.7 hPa NE 5.6 mph /  9 km/h 5.6 mph /  9 km/h 62 % 0.0 in /  0 mm 628.0 W/m2 CLR
12:29 7.8 °F /  -13.4 °C 0.5 °F /  -17.5 °C 1012.1 in /  34269.7 hPa Calm     60 % 0.0 in /  0 mm 624.0 W/m2 CLR
12:34 8.3 °F /  -13.2 °C 1.0 °F /  -17.2 °C 1011.7 in /  34256.2 hPa NNW 14.8 mph /  23.8 km/h 14.8 mph /  23.8 km/h 60 % 0.0 in /  0 mm 635.0 W/m2 CLR
12:39 8.9 °F /  -12.8 °C 1.1 °F /  -17.2 °C 1011.7 in /  34256.2 hPa NNE 11.1 mph /  17.9 km/h 11.1 mph /  17.9 km/h 58 % 0.0 in /  0 mm 640.0 W/m2 CLR
12:44 8.3 °F /  -13.2 °C 1.0 °F /  -17.2 °C 1012.1 in /  34269.7 hPa North 16.7 mph /  26.9 km/h 16.7 mph /  26.9 km/h 60 % 0.0 in /  0 mm 643.0 W/m2 CLR
12:49 8.3 °F /  -13.2 °C 0.6 °F /  -17.4 °C 1012.1 in /  34269.7 hPa Calm     58 % 0.0 in /  0 mm 645.0 W/m2 CLR
12:54 7.8 °F /  -13.4 °C -0.2 °F /  -17.9 °C 1011.7 in /  34256.2 hPa Calm     57 % 0.0 in /  0 mm 649.0 W/m2 CLR
12:59 8.3 °F /  -13.2 °C 0.3 °F /  -17.6 °C 1012.1 in /  34269.7 hPa Calm     57 % 0.0 in /  0 mm 650.0 W/m2 CLR
13:04 8.9 °F /  -12.8 °C 0.8 °F /  -17.3 °C 1011.7 in /  34256.2 hPa North 13.0 mph /  20.9 km/h 13.0 mph /  20.9 km/h 57 % 0.0 in /  0 mm 656.0 W/m2 CLR
13:09 8.9 °F /  -12.8 °C 1.1 °F /  -17.2 °C 1011.7 in /  34256.2 hPa NW 7.4 mph /  11.9 km/h   58 % 0.0 in /  0 mm 656.0 W/m2 CLR
13:14 9.4 °F /  -12.6 °C 1.1 °F /  -17.2 °C 1011.7 in /  34256.2 hPa Calm     56 % 0.0 in /  0 mm 652.0 W/m2 CLR
13:19 9.4 °F /  -12.6 °C 1.3 °F /  -17.1 °C 1011.7 in /  34256.2 hPa Calm     57 % 0.0 in /  0 mm 652.0 W/m2 CLR
13:24 9.4 °F /  -12.6 °C 0.8 °F /  -17.3 °C 1011.7 in /  34256.2 hPa Calm     55 % 0.0 in /  0 mm 647.0 W/m2 CLR
13:29 9.4 °F /  -12.6 °C 0.8 °F /  -17.3 °C 1011.4 in /  34246 hPa ENE 6.4 mph /  10.3 km/h 6.4 mph /  10.3 km/h 55 % 0.0 in /  0 mm 647.0 W/m2 CLR
13:34 9.4 °F /  -12.6 °C 0.8 °F /  -17.3 °C 1011.7 in /  34256.2 hPa East 8.0 mph /  12.9 km/h 8.0 mph /  12.9 km/h 55 % 0.0 in /  0 mm 640.0 W/m2 CLR
13:39 10.0 °F /  -12.2 °C 1.1 °F /  -17.2 °C 1011.4 in /  34246 hPa North 11.1 mph /  17.9 km/h 11.1 mph /  17.9 km/h 54 % 0.0 in /  0 mm 643.0 W/m2 CLR
13:44 9.4 °F /  -12.6 °C 0.6 °F /  -17.4 °C 1011.4 in /  34246 hPa NNE 14.8 mph /  23.8 km/h 14.8 mph /  23.8 km/h 54 % 0.0 in /  0 mm 643.0 W/m2 CLR
13:49 9.4 °F /  -12.6 °C 0.8 °F /  -17.3 °C 1011.4 in /  34246 hPa ENE 6.4 mph /  10.3 km/h 6.4 mph /  10.3 km/h 55 % 0.0 in /  0 mm 629.0 W/m2 CLR
13:54 9.4 °F /  -12.6 °C 0.6 °F /  -17.4 °C 1011.4 in /  34246 hPa NE 12.9 mph /  20.8 km/h 12.9 mph /  20.8 km/h 54 % 0.0 in /  0 mm 640.0 W/m2 CLR
13:59 9.4 °F /  -12.6 °C 0.8 °F /  -17.3 °C 1011.4 in /  34246 hPa NNW 11.1 mph /  17.9 km/h 11.1 mph /  17.9 km/h 55 % 0.0 in /  0 mm 633.0 W/m2 CLR
14:05 9.4 °F /  -12.6 °C 0.8 °F /  -17.3 °C 1011.4 in /  34246 hPa Calm     55 % 0.0 in /  0 mm 631.0 W/m2 CLR
14:10 10.0 °F /  -12.2 °C 0.8 °F /  -17.3 °C 1011.4 in /  34246 hPa East 13.0 mph /  20.9 km/h 13.0 mph /  20.9 km/h 53 % 0.0 in /  0 mm 629.0 W/m2 CLR
14:15 9.4 °F /  -12.6 °C 0.3 °F /  -17.6 °C 1011.4 in /  34246 hPa Calm     53 % 0.0 in /  0 mm 626.0 W/m2 CLR
14:20 10.0 °F /  -12.2 °C 0.6 °F /  -17.4 °C 1011.1 in /  34235.8 hPa ENE 14.8 mph /  23.8 km/h 14.8 mph /  23.8 km/h 52 % 0.0 in /  0 mm 619.0 W/m2 CLR
14:25 10.0 °F /  -12.2 °C 0.8 °F /  -17.3 °C 1011.1 in /  34235.8 hPa NNE 13.0 mph /  20.9 km/h 13.0 mph /  20.9 km/h 53 % 0.0 in /  0 mm 613.0 W/m2 CLR
14:30 10.0 °F /  -12.2 °C 0.8 °F /  -17.3 °C 1011.1 in /  34235.8 hPa NE 18.5 mph /  29.8 km/h 18.5 mph /  29.8 km/h 53 % 0.0 in /  0 mm 606.0 W/m2 CLR
14:35 10.0 °F /  -12.2 °C 0.8 °F /  -17.3 °C 1011.1 in /  34235.8 hPa ENE 18.5 mph /  29.8 km/h 18.5 mph /  29.8 km/h 53 % 0.0 in /  0 mm 599.0 W/m2 CLR
14:40 10.6 °F /  -11.9 °C 1.4 °F /  -17 °C 1011.1 in /  34235.8 hPa ENE 9.3 mph /  15 km/h 9.3 mph /  15 km/h 53 % 0.0 in /  0 mm 594.0 W/m2 CLR
14:45 10.6 °F /  -11.9 °C 1.6 °F /  -16.9 °C 1011.1 in /  34235.8 hPa NE 16.7 mph /  26.9 km/h 16.7 mph /  26.9 km/h 54 % 0.0 in /  0 mm 582.0 W/m2 CLR
14:50 9.4 °F /  -12.6 °C 0.3 °F /  -17.6 °C 1011.1 in /  34235.8 hPa NE 11.3 mph /  18.2 km/h 11.3 mph /  18.2 km/h 53 % 0.0 in /  0 mm 571.0 W/m2 CLR
14:55 10.6 °F /  -11.9 °C 1.4 °F /  -17 °C 1010.7 in /  34222.3 hPa East 16.7 mph /  26.9 km/h 16.7 mph /  26.9 km/h 53 % 0.0 in /  0 mm 573.0 W/m2 CLR
15:00 10.0 °F /  -12.2 °C 0.6 °F /  -17.4 °C 1011.1 in /  34235.8 hPa ESE 13.0 mph /  20.9 km/h 13.0 mph /  20.9 km/h 52 % 0.0 in /  0 mm 564.0 W/m2 CLR
15:05 10.0 °F /  -12.2 °C 0.8 °F /  -17.3 °C 1010.7 in /  34222.3 hPa East 1.9 mph /  3.1 km/h   53 % 0.0 in /  0 mm 554.0 W/m2 CLR
15:10 9.4 °F /  -12.6 °C 0.3 °F /  -17.6 °C 1011.1 in /  34235.8 hPa East 13.0 mph /  20.9 km/h 13.0 mph /  20.9 km/h 53 % 0.0 in /  0 mm 541.0 W/m2 CLR
15:15 10.0 °F /  -12.2 °C 0.6 °F /  -17.4 °C 1010.7 in /  34222.3 hPa ENE 5.6 mph /  9 km/h 6.1 mph /  9.8 km/h 52 % 0.0 in /  0 mm 533.0 W/m2 CLR
15:20 9.4 °F /  -12.6 °C -0.2 °F /  -17.9 °C 1010.7 in /  34222.3 hPa ENE 1.9 mph /  3.1 km/h   51 % 0.0 in /  0 mm 520.0 W/m2 CLR
15:25 9.4 °F /  -12.6 °C -0.4 °F /  -18 °C 1010.7 in /  34222.3 hPa East 1.9 mph /  3.1 km/h   50 % 0.0 in /  0 mm 513.0 W/m2 CLR
15:30 10.0 °F /  -12.2 °C 0.1 °F /  -17.7 °C 1010.7 in /  34222.3 hPa SSE 1.9 mph /  3.1 km/h 1.9 mph /  3.1 km/h 50 % 0.0 in /  0 mm 503.0 W/m2 CLR
15:35 10.0 °F /  -12.2 °C 0.1 °F /  -17.7 °C 1010.7 in /  34222.3 hPa South 1.9 mph /  3.1 km/h 1.9 mph /  3.1 km/h 50 % 0.0 in /  0 mm 482.0 W/m2 CLR
15:40 10.0 °F /  -12.2 °C 0.3 °F /  -17.6 °C 1010.7 in /  34222.3 hPa Calm     51 % 0.0 in /  0 mm 473.0 W/m2 CLR
15:45 10.0 °F /  -12.2 °C 0.1 °F /  -17.7 °C 1010.7 in /  34222.3 hPa SE 1.9 mph /  3.1 km/h 1.9 mph /  3.1 km/h 50 % 0.0 in /  0 mm 457.0 W/m2 CLR
15:50 10.6 °F /  -11.9 °C 0.3 °F /  -17.6 °C 1010.7 in /  34222.3 hPa Calm     49 % 0.0 in /  0 mm 446.0 W/m2 CLR
15:55 10.6 °F /  -11.9 °C 0.3 °F /  -17.6 °C 1010.7 in /  34222.3 hPa Calm     49 % 0.0 in /  0 mm 445.0 W/m2 CLR
16:00 10.6 °F /  -11.9 °C 0.3 °F /  -17.6 °C 1010.7 in /  34222.3 hPa Calm     49 % 0.0 in /  0 mm 422.0 W/m2 CLR
16:05 10.6 °F /  -11.9 °C 0.3 °F /  -17.6 °C 1010.7 in /  34222.3 hPa Calm     49 % 0.0 in /  0 mm 404.0 W/m2 CLR
16:10 11.1 °F /  -11.6 °C 0.5 °F /  -17.5 °C 1010.7 in /  34222.3 hPa Calm     48 % 0.0 in /  0 mm 394.0 W/m2 CLR
16:17 10.6 °F /  -11.9 °C -0.6 °F /  -18.1 °C 1010.7 in /  34222.3 hPa Calm     46 % 0.0 in /  0 mm 383.0 W/m2 CLR
16:22 10.6 °F /  -11.9 °C -0.6 °F /  -18.1 °C 1010.7 in /  34222.3 hPa Calm     46 % 0.0 in /  0 mm 373.0 W/m2 CLR
16:27 10.6 °F /  -11.9 °C -0.9 °F /  -18.3 °C 1010.7 in /  34222.3 hPa Calm     45 % 0.0 in /  0 mm 359.0 W/m2 CLR
16:32 10.0 °F /  -12.2 °C -1.1 °F /  -18.4 °C 1010.7 in /  34222.3 hPa Calm     46 % 0.0 in /  0 mm 345.0 W/m2 CLR
16:37 10.6 °F /  -11.9 °C -0.6 °F /  -18.1 °C 1010.7 in /  34222.3 hPa ENE 1.6 mph /  2.6 km/h   46 % 0.0 in /  0 mm 332.0 W/m2 CLR
16:42 10.6 °F /  -11.9 °C -0.6 °F /  -18.1 °C 1010.7 in /  34222.3 hPa Calm     46 % 0.0 in /  0 mm 318.0 W/m2 CLR
16:47 10.0 °F /  -12.2 °C -1.1 °F /  -18.4 °C 1010.7 in /  34222.3 hPa ENE 1.9 mph /  3.1 km/h 1.9 mph /  3.1 km/h 46 % 0.0 in /  0 mm 299.0 W/m2 CLR
16:52 10.0 °F /  -12.2 °C -0.8 °F /  -18.2 °C 1010.7 in /  34222.3 hPa ENE 3.7 mph /  6 km/h 3.7 mph /  6 km/h 47 % 0.0 in /  0 mm 283.0 W/m2 CLR
16:57 10.0 °F /  -12.2 °C -1.1 °F /  -18.4 °C 1010.7 in /  34222.3 hPa Calm     46 % 0.0 in /  0 mm 265.0 W/m2 CLR
17:02 10.0 °F /  -12.2 °C -1.7 °F /  -18.7 °C 1010.7 in /  34222.3 hPa NNE 1.9 mph /  3.1 km/h 1.9 mph /  3.1 km/h 44 % 0.0 in /  0 mm 255.0 W/m2 CLR
17:07 10.0 °F /  -12.2 °C -1.7 °F /  -18.7 °C 1010.7 in /  34222.3 hPa ENE 1.9 mph /  3.1 km/h 1.9 mph /  3.1 km/h 44 % 0.0 in /  0 mm 232.0 W/m2 CLR
17:12 10.0 °F /  -12.2 °C -1.7 °F /  -18.7 °C 1010.7 in /  34222.3 hPa ENE 3.2 mph /  5.1 km/h   44 % 0.0 in /  0 mm 214.0 W/m2 CLR
17:17 10.0 °F /  -12.2 °C -1.1 °F /  -18.4 °C 1010.7 in /  34222.3 hPa East 1.9 mph /  3.1 km/h   46 % 0.0 in /  0 mm 195.0 W/m2 CLR
17:22 9.4 °F /  -12.6 °C -1.3 °F /  -18.5 °C 1010.7 in /  34222.3 hPa Calm     47 % 0.0 in /  0 mm 179.0 W/m2 CLR
17:27 9.4 °F /  -12.6 °C -1.3 °F /  -18.5 °C 1011.1 in /  34235.8 hPa ENE 1.9 mph /  3.1 km/h 1.9 mph /  3.1 km/h 47 % 0.0 in /  0 mm 160.0 W/m2 CLR
17:32 9.4 °F /  -12.6 °C -1.1 °F /  -18.4 °C 1010.7 in /  34222.3 hPa Calm     48 % 0.0 in /  0 mm 146.0 W/m2 CLR
17:37 9.4 °F /  -12.6 °C -1.6 °F /  -18.7 °C 1011.1 in /  34235.8 hPa Calm     46 % 0.0 in /  0 mm 128.0 W/m2 CLR
17:42 9.4 °F /  -12.6 °C -1.3 °F /  -18.5 °C 1011.1 in /  34235.8 hPa NNE 3.7 mph /  6 km/h 3.7 mph /  6 km/h 47 % 0.0 in /  0 mm 116.0 W/m2 CLR
17:47 8.9 °F /  -12.8 °C -1.8 °F /  -18.8 °C 1011.1 in /  34235.8 hPa NNE 1.9 mph /  3.1 km/h   47 % 0.0 in /  0 mm 102.0 W/m2 CLR
17:52 8.9 °F /  -12.8 °C -1.6 °F /  -18.7 °C 1011.1 in /  34235.8 hPa NNE 5.6 mph /  9 km/h 5.6 mph /  9 km/h 48 % 0.0 in /  0 mm 83.0 W/m2 CLR
17:57 8.9 °F /  -12.8 °C -1.6 °F /  -18.7 °C 1011.1 in /  34235.8 hPa NNE 1.9 mph /  3.1 km/h   48 % 0.0 in /  0 mm 70.0 W/m2 FEW
18:02 8.3 °F /  -13.2 °C -2.1 °F /  -18.9 °C 1011.1 in /  34235.8 hPa NNE 3.7 mph /  6 km/h 3.7 mph /  6 km/h 48 % 0.0 in /  0 mm 58.0 W/m2 SCT
18:07 8.3 °F /  -13.2 °C -1.8 °F /  -18.8 °C 1011.1 in /  34235.8 hPa North 1.9 mph /  3.1 km/h   49 % 0.0 in /  0 mm 49.0 W/m2 SCT
18:12 8.3 °F /  -13.2 °C -1.8 °F /  -18.8 °C 1011.4 in /  34246 hPa North 1.9 mph /  3.1 km/h 1.9 mph /  3.1 km/h 49 % 0.0 in /  0 mm 37.0 W/m2 BKN
18:17 8.3 °F /  -13.2 °C -1.8 °F /  -18.8 °C 1011.1 in /  34235.8 hPa North 3.7 mph /  6 km/h 3.7 mph /  6 km/h 49 % 0.0 in /  0 mm 28.0 W/m2 BKN
18:22 7.8 °F /  -13.4 °C -2.0 °F /  -18.9 °C 1011.4 in /  34246 hPa NNW 1.9 mph /  3.1 km/h 1.9 mph /  3.1 km/h 50 % 0.0 in /  0 mm 21.0 W/m2 BKN
18:27 7.8 °F /  -13.4 °C -1.5 °F /  -18.6 °C 1011.4 in /  34246 hPa Calm     52 % 0.0 in /  0 mm 18.0 W/m2 BKN
18:32 7.2 °F /  -13.8 °C -1.7 °F /  -18.7 °C 1011.4 in /  34246 hPa Calm     53 % 0.0 in /  0 mm 14.0 W/m2 BKN
18:37 6.7 °F /  -14.1 °C -2.2 °F /  -19 °C 1011.4 in /  34246 hPa Calm     53 % 0.0 in /  0 mm 9.0 W/m2 BKN
18:42 6.1 °F /  -14.4 °C -2.5 °F /  -19.2 °C 1011.4 in /  34246 hPa Calm     54 % 0.0 in /  0 mm 5.0 W/m2 OVC
18:47 5.6 °F /  -14.7 °C -2.8 °F /  -19.3 °C 1011.7 in /  34256.2 hPa Calm     55 % 0.0 in /  0 mm 0.0 W/m2 OVC
18:52 5.0 °F /  -15 °C -3.1 °F /  -19.5 °C 1011.7 in /  34256.2 hPa Calm     56 % 0.0 in /  0 mm 0.0 W/m2 OVC
18:57 5.0 °F /  -15 °C -3.1 °F /  -19.5 °C 1011.7 in /  34256.2 hPa Calm     56 % 0.0 in /  0 mm 0.0 W/m2 CLR
19:02 4.4 °F /  -15.3 °C -3.3 °F /  -19.6 °C 1011.7 in /  34256.2 hPa Calm     57 % 0.0 in /  0 mm 0.0 W/m2 CLR
19:07 3.9 °F /  -15.6 °C -3.9 °F /  -19.9 °C 1011.7 in /  34256.2 hPa Calm     57 % 0.0 in /  0 mm 0.0 W/m2 CLR
19:12 3.9 °F /  -15.6 °C -3.6 °F /  -19.8 °C 1012.1 in /  34269.7 hPa Calm     58 % 0.0 in /  0 mm 0.0 W/m2 CLR
19:17 3.9 °F /  -15.6 °C -3.4 °F /  -19.7 °C 1012.1 in /  34269.7 hPa Calm     59 % 0.0 in /  0 mm 0.0 W/m2 CLR
19:22 4.4 °F /  -15.3 °C -2.7 °F /  -19.3 °C 1012.1 in /  34269.7 hPa Calm     60 % 0.0 in /  0 mm 0.0 W/m2 CLR
19:27 3.9 °F /  -15.6 °C -3.2 °F /  -19.6 °C 1012.1 in /  34269.7 hPa Calm     60 % 0.0 in /  0 mm 0.0 W/m2 CLR
19:32 3.3 °F /  -15.9 °C -3.5 °F /  -19.7 °C 1012.1 in /  34269.7 hPa Calm     61 % 0.0 in /  0 mm 0.0 W/m2 CLR
19:37 3.3 °F /  -15.9 °C -3.5 °F /  -19.7 °C 1012.4 in /  34279.9 hPa Calm     61 % 0.0 in /  0 mm 0.0 W/m2 CLR
19:42 3.3 °F /  -15.9 °C -3.1 °F /  -19.5 °C 1012.1 in /  34269.7 hPa Calm     63 % 0.0 in /  0 mm 0.0 W/m2 CLR
19:47 3.3 °F /  -15.9 °C -2.8 °F /  -19.3 °C 1012.4 in /  34279.9 hPa Calm     64 % 0.0 in /  0 mm 0.0 W/m2 CLR
19:52 2.8 °F /  -16.2 °C -3.2 °F /  -19.6 °C 1012.4 in /  34279.9 hPa Calm     65 % 0.0 in /  0 mm 0.0 W/m2 CLR
19:57 2.8 °F /  -16.2 °C -2.9 °F /  -19.4 °C 1012.4 in /  34279.9 hPa Calm     66 % 0.0 in /  0 mm 0.0 W/m2 CLR
20:02 2.2 °F /  -16.6 °C -3.5 °F /  -19.7 °C 1012.4 in /  34279.9 hPa Calm     66 % 0.0 in /  0 mm 0.0 W/m2 CLR
20:07 2.2 °F /  -16.6 °C -3.3 °F /  -19.6 °C 1012.4 in /  34279.9 hPa Calm     67 % 0.0 in /  0 mm 0.0 W/m2 CLR
20:12 2.2 °F /  -16.6 °C -3.3 °F /  -19.6 °C 1012.8 in /  34293.4 hPa Calm     67 % 0.0 in /  0 mm 0.0 W/m2 CLR
20:17 1.7 °F /  -16.8 °C -3.4 °F /  -19.7 °C 1012.8 in /  34293.4 hPa Calm     69 % 0.0 in /  0 mm 0.0 W/m2 CLR
20:22 1.7 °F /  -16.8 °C -3.4 °F /  -19.7 °C 1012.8 in /  34293.4 hPa Calm     69 % 0.0 in /  0 mm 0.0 W/m2 CLR
20:27 1.1 °F /  -17.2 °C -3.8 °F /  -19.9 °C 1012.4 in /  34279.9 hPa Calm     70 % 0.0 in /  0 mm 0.0 W/m2 CLR
20:32 1.1 °F /  -17.2 °C -3.8 °F /  -19.9 °C 1012.8 in /  34293.4 hPa Calm     70 % 0.0 in /  0 mm 0.0 W/m2 CLR
20:37 1.1 °F /  -17.2 °C -3.8 °F /  -19.9 °C 1012.8 in /  34293.4 hPa Calm     70 % 0.0 in /  0 mm 0.0 W/m2 CLR
20:42 0.6 °F /  -17.4 °C -4.1 °F /  -20.1 °C 1012.8 in /  34293.4 hPa Calm     71 % 0.0 in /  0 mm 0.0 W/m2 CLR
20:47 0.0 °F /  -17.8 °C -4.4 °F /  -20.2 °C 1012.8 in /  34293.4 hPa Calm     72 % 0.0 in /  0 mm 0.0 W/m2 CLR
20:52 0.0 °F /  -17.8 °C -4.3 °F /  -20.2 °C 1012.8 in /  34293.4 hPa Calm     73 % 0.0 in /  0 mm 0.0 W/m2 CLR
20:58 0.0 °F /  -17.8 °C -4.3 °F /  -20.2 °C 1012.8 in /  34293.4 hPa Calm     73 % 0.0 in /  0 mm 0.0 W/m2 CLR
21:03 -0.6 °F /  -18.1 °C -4.6 °F /  -20.3 °C 1013.1 in /  34303.6 hPa Calm     74 % 0.0 in /  0 mm 0.0 W/m2 CLR
21:08 -0.6 °F /  -18.1 °C -4.6 °F /  -20.3 °C 1013.1 in /  34303.6 hPa Calm     74 % 0.0 in /  0 mm 0.0 W/m2 CLR
21:13 -0.6 °F /  -18.1 °C -4.6 °F /  -20.3 °C 1013.1 in /  34303.6 hPa Calm     74 % 0.0 in /  0 mm 0.0 W/m2 CLR
21:18 -0.6 °F /  -18.1 °C -4.4 °F /  -20.2 °C 1013.1 in /  34303.6 hPa Calm     75 % 0.0 in /  0 mm 0.0 W/m2 CLR
21:23 -0.6 °F /  -18.1 °C -4.4 °F /  -20.2 °C 1013.1 in /  34303.6 hPa Calm     75 % 0.0 in /  0 mm 0.0 W/m2 CLR
21:28 -0.6 °F /  -18.1 °C -4.3 °F /  -20.2 °C 1013.1 in /  34303.6 hPa Calm     76 % 0.0 in /  0 mm 0.0 W/m2 CLR
21:33 -0.6 °F /  -18.1 °C -4.3 °F /  -20.2 °C 1013.1 in /  34303.6 hPa Calm     76 % 0.0 in /  0 mm 0.0 W/m2 CLR
21:38 -1.1 °F /  -18.4 °C -4.6 °F /  -20.3 °C 1013.1 in /  34303.6 hPa Calm     77 % 0.0 in /  0 mm 0.0 W/m2 CLR
21:43 -1.1 °F /  -18.4 °C -4.6 °F /  -20.3 °C 1013.1 in /  34303.6 hPa Calm     77 % 0.0 in /  0 mm 0.0 W/m2 CLR
21:48 -1.1 °F /  -18.4 °C -4.6 °F /  -20.3 °C 1013.1 in /  34303.6 hPa Calm     77 % 0.0 in /  0 mm 0.0 W/m2 CLR
21:53 -1.7 °F /  -18.7 °C -5.0 °F /  -20.6 °C 1013.1 in /  34303.6 hPa Calm     78 % 0.0 in /  0 mm 0.0 W/m2 CLR
21:58 -1.7 °F /  -18.7 °C -5.0 °F /  -20.6 °C 1013.4 in /  34313.7 hPa Calm     78 % 0.0 in /  0 mm 0.0 W/m2 CLR
22:03 -1.7 °F /  -18.7 °C -5.0 °F /  -20.6 °C 1013.4 in /  34313.7 hPa Calm     78 % 0.0 in /  0 mm 0.0 W/m2 CLR
22:05 -1.7 °F /  -18.7 °C -5.0 °F /  -20.6 °C 1013.1 in /  34303.6 hPa Calm     78 % 0.0 in /  0 mm 0.0 W/m2 CLR
22:10 -1.7 °F /  -18.7 °C -5.0 °F /  -20.6 °C 1013.4 in /  34313.7 hPa Calm     78 % 0.0 in /  0 mm 0.0 W/m2 CLR
22:15 -1.7 °F /  -18.7 °C -4.8 °F /  -20.4 °C 1013.4 in /  34313.7 hPa Calm     79 % 0.0 in /  0 mm 0.0 W/m2 CLR
22:20 -1.7 °F /  -18.7 °C -4.8 °F /  -20.4 °C 1013.4 in /  34313.7 hPa Calm     79 % 0.0 in /  0 mm 0.0 W/m2 CLR
22:25 -1.7 °F /  -18.7 °C -4.8 °F /  -20.4 °C 1013.4 in /  34313.7 hPa Calm     79 % 0.0 in /  0 mm 0.0 W/m2 CLR
22:30 -1.7 °F /  -18.7 °C -4.8 °F /  -20.4 °C 1013.4 in /  34313.7 hPa Calm     79 % 0.0 in /  0 mm 0.0 W/m2 CLR
22:32 -1.7 °F /  -18.7 °C -4.8 °F /  -20.4 °C 1013.4 in /  34313.7 hPa Calm     79 % 0.0 in /  0 mm 0.0 W/m2 CLR
22:37 -1.7 °F /  -18.7 °C -4.8 °F /  -20.4 °C 1013.4 in /  34313.7 hPa Calm     79 % 0.0 in /  0 mm 0.0 W/m2 CLR
22:42 -1.7 °F /  -18.7 °C -4.7 °F /  -20.4 °C 1013.8 in /  34327.3 hPa Calm     80 % 0.0 in /  0 mm 0.0 W/m2 CLR
22:46 -1.7 °F /  -18.7 °C -4.7 °F /  -20.4 °C 1013.8 in /  34327.3 hPa Calm     80 % 0.0 in /  0 mm 0.0 W/m2 CLR
22:51 -1.7 °F /  -18.7 °C -4.8 °F /  -20.4 °C 1013.8 in /  34327.3 hPa Calm     79 % 0.0 in /  0 mm 0.0 W/m2 CLR
22:56 -2.2 °F /  -19 °C -5.4 °F /  -20.8 °C 1013.8 in /  34327.3 hPa Calm     79 % 0.0 in /  0 mm 0.0 W/m2 CLR
23:01 -2.2 °F /  -19 °C -5.2 °F /  -20.7 °C 1013.8 in /  34327.3 hPa Calm     80 % 0.0 in /  0 mm 0.0 W/m2 CLR
23:03 -2.2 °F /  -19 °C -5.2 °F /  -20.7 °C 1013.8 in /  34327.3 hPa Calm     80 % 0.0 in /  0 mm 0.0 W/m2 CLR
23:08 -2.2 °F /  -19 °C -5.1 °F /  -20.6 °C 1013.8 in /  34327.3 hPa Calm     81 % 0.0 in /  0 mm 0.0 W/m2 CLR
23:13 -2.2 °F /  -19 °C -5.1 °F /  -20.6 °C 1013.8 in /  34327.3 hPa Calm     81 % 0.0 in /  0 mm 0.0 W/m2 CLR
23:18 -2.2 °F /  -19 °C -4.9 °F /  -20.5 °C 1013.8 in /  34327.3 hPa Calm     82 % 0.0 in /  0 mm 0.0 W/m2 CLR
23:23 -2.2 °F /  -19 °C -4.7 °F /  -20.4 °C 1014.1 in /  34337.4 hPa Calm     83 % 0.0 in /  0 mm 0.0 W/m2 CLR
23:24 -2.2 °F /  -19 °C -4.7 °F /  -20.4 °C 1013.8 in /  34327.3 hPa Calm     83 % 0.0 in /  0 mm 0.0 W/m2 CLR
23:29 -2.2 °F /  -19 °C -4.7 °F /  -20.4 °C 1013.8 in /  34327.3 hPa Calm     83 % 0.0 in /  0 mm 0.0 W/m2 CLR
23:34 -2.2 °F /  -19 °C -4.7 °F /  -20.4 °C 1013.8 in /  34327.3 hPa Calm     83 % 0.0 in /  0 mm 0.0 W/m2 CLR
23:39 -2.8 °F /  -19.3 °C -5.3 °F /  -20.7 °C 1013.8 in /  34327.3 hPa Calm     83 % 0.0 in /  0 mm 0.0 W/m2 CLR
23:46 -2.8 °F /  -19.3 °C -5.3 °F /  -20.7 °C 1013.8 in /  34327.3 hPa Calm     83 % 0.0 in /  0 mm 0.0 W/m2 CLR
23:51 -2.8 °F /  -19.3 °C -5.3 °F /  -20.7 °C 1013.8 in /  34327.3 hPa Calm     83 % 0.0 in /  0 mm 0.0 W/m2 CLR
23:56 -2.8 °F /  -19.3 °C -5.3 °F /  -20.7 °C 1013.8 in /  34327.3 hPa Calm     83 % 0.0 in /  0 mm 0.0 W/m2 CLR
Lo Temps de Massalio
Compliments of Weather Underground - 1.25 mb